Golden Shanghai — 9HA2862 — position and weather

sailwx.info

Track history (hours):
 
Tides and Currents Weather Stations Pressure Air Temp Water Temp Dewpoint Dewpoint Depression Visibility Wind Speed Wind Dir Waves Ship Positions

Golden Shanghai

Last reported at 2015-May-24 18:15 UTC. Time now 2015-May-24 19:21 UTC.
Position N 33°59' E 123°45'.

Length 292 m; draft 8.6 m.

Type: Ship. MMSI: 256456000.

Date/timePositionNaut miles runAvg speedWind from/ knotsBaromVisibWave heightAir tempDewpointWater temp
2015-May-24 18:15N 33°59' E 123°45'4913.1
2015-May-24 14:32N 34°47' E 123°39'3313.4
2015-May-24 12:05N 35°20' E 123°35'2213.6
2015-May-24 10:29N 35°42' E 123°32'1413.7
2015-May-24 09:26N 35°56' E 123°31'1213.9
2015-May-24 08:33N 36°08' E 123°29'1414.1
2015-May-24 07:33N 36°22' E 123°26'1414.0
2015-May-24 06:33N 36°36' E 123°25'1413.5
2015-May-24 05:34N 36°50' E 123°24'1313.1
2015-May-24 04:34N 37°03' E 123°22'1312.6
2015-May-24 03:34N 37°15' E 123°20'1212.1
2015-May-24 02:34N 37°27' E 123°19'1211.7
2015-May-24 01:34N 37°39' E 123°16'1211.6
2015-May-24 00:34N 37°50' E 123°16'1110.7
2015-May-23 23:34N 37°57' E 123°05'1312.9
2015-May-23 22:34N 38°01' E 122°50'1313.5
2015-May-23 21:34N 38°05' E 122°33'1413.6
2015-May-23 20:33N 38°09' E 122°17'1413.7
2015-May-23 19:33N 38°13' E 122°00'1413.5
2015-May-23 18:33N 38°17' E 121°44'1313.1
2015-May-23 17:33N 38°20' E 121°28'1313.1
2015-May-23 16:33N 38°25' E 121°12'4213.4
2015-May-23 13:24N 38°40' E 120°21'1113.0
2015-May-23 12:32N 38°43' E 120°07'1412.6
2015-May-23 11:25N 38°47' E 119°50'1612.1
2015-May-23 10:06N 38°51' E 119°30'711.8
2015-May-23 09:32N 38°52' E 119°22'1211.9
2015-May-23 08:33N 39°02' E 119°13'11 9.7
2015-May-23 07:27N 39°09' E 119°03'4 0.5
2015-May-23 00:07N 39°13' E 119°02'11 0.2
2015-May-21 00:17N 39°04' E 119°10'7 6.5
2015-May-20 23:10N 38°58' E 119°14'3 3.1
2015-May-20 22:08N 38°55' E 119°14'0 0.1
2015-May-20 17:14N 38°55' E 119°14'0 0.1
2015-May-20 15:20N 38°55' E 119°14'56 1.2
2015-May-18 16:24N 38°42' E 120°24'1011.3
2015-May-18 15:33N 38°40' E 120°36'1110.9
2015-May-18 14:33N 38°38' E 120°49'2010.2
2015-May-18 12:33N 38°29' E 121°13'1010.1
2015-May-18 11:33N 38°25' E 121°25'1010.3
2015-May-18 10:33N 38°22' E 121°37'97 9.7
2015-May-18 00:33N 37°27' E 123°18'1412.0
2015-May-17 23:21N 37°13' E 123°20'1012.6
2015-May-17 22:33N 37°03' E 123°22'1312.6
2015-May-17 21:33N 36°50' E 123°23'1312.7
2015-May-17 20:33N 36°38' E 123°25'1312.2
2015-May-17 19:32N 36°25' E 123°26'1211.8
2015-May-17 18:32N 36°14' E 123°28'1211.8
2015-May-17 17:33N 36°02' E 123°29'2911.8
2015-May-17 15:05N 35°33' E 123°33'711.8
2015-May-17 14:29N 35°26' E 123°34'1211.8
2015-May-17 13:28N 35°14' E 123°35'1111.5
2015-May-17 12:33N 35°04' E 123°37'1111.1
2015-May-17 11:32N 34°53' E 123°38'1110.9
2015-May-17 10:33N 34°42' E 123°40'1110.7
2015-May-17 09:33N 34°31' E 123°41'1110.6
2015-May-17 08:31N 34°21' E 123°43'1010.3
2015-May-17 07:33N 34°11' E 123°44'1110.9
2015-May-17 06:33N 33°60' E 123°45'1111.4
2015-May-17 05:33N 33°48' E 123°47'2311.5
2015-May-17 03:32N 33°25' E 123°50'5811.7
2015-May-16 22:32N 32°27' E 123°57'1010.2
2015-May-16 21:33N 32°17' E 123°58'10 9.8
2015-May-16 20:33N 32°07' E 123°59'10 9.7
2015-May-16 19:32N 31°58' E 123°60'9 9.7
2015-May-16 18:33N 31°48' E 124°00'1010.1
2015-May-16 17:33N 31°38' E 124°01'1110.7
2015-May-16 16:33N 31°27' E 124°01'1111.5
2015-May-16 15:33N 31°16' E 123°60'1211.7
2015-May-16 14:33N 31°04' E 124°01'1212.3
2015-May-16 13:33N 30°52' E 124°00'1212.0
2015-May-16 12:33N 30°40' E 124°00'1312.0
2015-May-16 11:31N 30°28' E 124°01'1211.8
2015-May-16 10:31N 30°16' E 124°02'1210.8
2015-May-16 09:23N 30°04' E 124°03'810.0
2015-May-16 08:33N 29°56' E 123°59'1110.7
2015-May-16 07:30N 29°45' E 123°56'1010.4
2015-May-16 06:31N 29°35' E 123°54'  
Track history (hours):
 
Tides and Currents Weather Stations Pressure Air Temp Water Temp Dewpoint Dewpoint Depression Visibility Wind Speed Wind Dir Waves Ship Positions

Golden Shanghai

Last reported at 2015-May-24 18:15 UTC. Time now 2015-May-24 19:21 UTC.
Position N 33°59' E 123°45'.

Length 292 m; draft 8.6 m.

Type: Ship. MMSI: 256456000.

Date/timePositionNaut miles runAvg speedWind from/ knotsBaromVisibWave heightAir tempDewpointWater temp
2015-May-24 18:15N 33°59' E 123°45'4913.1
2015-May-24 14:32N 34°47' E 123°39'3313.4
2015-May-24 12:05N 35°20' E 123°35'2213.6
2015-May-24 10:29N 35°42' E 123°32'1413.7
2015-May-24 09:26N 35°56' E 123°31'1213.9
2015-May-24 08:33N 36°08' E 123°29'1414.1
2015-May-24 07:33N 36°22' E 123°26'1414.0
2015-May-24 06:33N 36°36' E 123°25'1413.5
2015-May-24 05:34N 36°50' E 123°24'1313.1
2015-May-24 04:34N 37°03' E 123°22'1312.6
2015-May-24 03:34N 37°15' E 123°20'1212.1
2015-May-24 02:34N 37°27' E 123°19'1211.7
2015-May-24 01:34N 37°39' E 123°16'1211.6
2015-May-24 00:34N 37°50' E 123°16'1110.7
2015-May-23 23:34N 37°57' E 123°05'1312.9
2015-May-23 22:34N 38°01' E 122°50'1313.5
2015-May-23 21:34N 38°05' E 122°33'1413.6
2015-May-23 20:33N 38°09' E 122°17'1413.7
2015-May-23 19:33N 38°13' E 122°00'1413.5
2015-May-23 18:33N 38°17' E 121°44'1313.1
2015-May-23 17:33N 38°20' E 121°28'1313.1
2015-May-23 16:33N 38°25' E 121°12'4213.4
2015-May-23 13:24N 38°40' E 120°21'1113.0
2015-May-23 12:32N 38°43' E 120°07'1412.6
2015-May-23 11:25N 38°47' E 119°50'1612.1
2015-May-23 10:06N 38°51' E 119°30'711.8
2015-May-23 09:32N 38°52' E 119°22'1211.9
2015-May-23 08:33N 39°02' E 119°13'11 9.7
2015-May-23 07:27N 39°09' E 119°03'4 0.5
2015-May-23 00:07N 39°13' E 119°02'11 0.2
2015-May-21 00:17N 39°04' E 119°10'7 6.5
2015-May-20 23:10N 38°58' E 119°14'3 3.1
2015-May-20 22:08N 38°55' E 119°14'0 0.1
2015-May-20 17:14N 38°55' E 119°14'0 0.1
2015-May-20 15:20N 38°55' E 119°14'56 1.2
2015-May-18 16:24N 38°42' E 120°24'1011.3
2015-May-18 15:33N 38°40' E 120°36'1110.9
2015-May-18 14:33N 38°38' E 120°49'2010.2
2015-May-18 12:33N 38°29' E 121°13'1010.1
2015-May-18 11:33N 38°25' E 121°25'1010.3
2015-May-18 10:33N 38°22' E 121°37'97 9.7
2015-May-18 00:33N 37°27' E 123°18'1412.0
2015-May-17 23:21N 37°13' E 123°20'1012.6
2015-May-17 22:33N 37°03' E 123°22'1312.6
2015-May-17 21:33N 36°50' E 123°23'1312.7
2015-May-17 20:33N 36°38' E 123°25'1312.2
2015-May-17 19:32N 36°25' E 123°26'1211.8
2015-May-17 18:32N 36°14' E 123°28'1211.8
2015-May-17 17:33N 36°02' E 123°29'2911.8
2015-May-17 15:05N 35°33' E 123°33'711.8
2015-May-17 14:29N 35°26' E 123°34'1211.8
2015-May-17 13:28N 35°14' E 123°35'1111.5
2015-May-17 12:33N 35°04' E 123°37'1111.1
2015-May-17 11:32N 34°53' E 123°38'1110.9
2015-May-17 10:33N 34°42' E 123°40'1110.7
2015-May-17 09:33N 34°31' E 123°41'1110.6
2015-May-17 08:31N 34°21' E 123°43'1010.3
2015-May-17 07:33N 34°11' E 123°44'1110.9
2015-May-17 06:33N 33°60' E 123°45'1111.4
2015-May-17 05:33N 33°48' E 123°47'2311.5
2015-May-17 03:32N 33°25' E 123°50'5811.7
2015-May-16 22:32N 32°27' E 123°57'1010.2
2015-May-16 21:33N 32°17' E 123°58'10 9.8
2015-May-16 20:33N 32°07' E 123°59'10 9.7
2015-May-16 19:32N 31°58' E 123°60'9 9.7
2015-May-16 18:33N 31°48' E 124°00'1010.1
2015-May-16 17:33N 31°38' E 124°01'1110.7
2015-May-16 16:33N 31°27' E 124°01'1111.5
2015-May-16 15:33N 31°16' E 123°60'1211.7
2015-May-16 14:33N 31°04' E 124°01'1212.3
2015-May-16 13:33N 30°52' E 124°00'1212.0
2015-May-16 12:33N 30°40' E 124°00'1312.0
2015-May-16 11:31N 30°28' E 124°01'1211.8
2015-May-16 10:31N 30°16' E 124°02'1210.8
2015-May-16 09:23N 30°04' E 124°03'810.0
2015-May-16 08:33N 29°56' E 123°59'1110.7
2015-May-16 07:30N 29°45' E 123°56'1010.4
2015-May-16 06:31N 29°35' E 123°54'  

Dump ship's entire track history